createdAt,value
2019-03-19T00:00:58.477Z,0.00
2019-03-19T00:02:00.423Z,0.00
2019-03-19T00:02:59.513Z,0.00
2019-03-19T00:04:00.859Z,0.00
2019-03-19T00:04:59.226Z,0.00
2019-03-19T00:06:03.356Z,0.00
2019-03-19T00:07:26.386Z,0.00
2019-03-19T00:08:00.718Z,0.00
2019-03-19T00:09:02.391Z,0.00
2019-03-19T00:10:03.857Z,0.00
2019-03-19T00:11:03.855Z,0.00
2019-03-19T00:12:00.237Z,0.00
2019-03-19T00:13:03.810Z,0.00
2019-03-19T00:14:03.842Z,0.00
2019-03-19T00:15:00.662Z,0.00
2019-03-19T00:16:00.854Z,0.00
2019-03-19T00:17:05.809Z,0.00
2019-03-19T00:18:02.860Z,0.00
2019-03-19T00:19:09.355Z,0.00
2019-03-19T00:20:04.302Z,0.00
2019-03-19T00:21:03.315Z,0.00
2019-03-19T00:22:03.910Z,0.00
2019-03-19T00:23:06.837Z,0.00
2019-03-19T00:24:06.814Z,0.00
2019-03-19T00:25:02.291Z,0.00
2019-03-19T00:26:04.813Z,0.00
2019-03-19T00:27:03.653Z,0.00
2019-03-19T00:28:09.409Z,0.00
2019-03-19T00:29:05.205Z,0.00
2019-03-19T00:30:06.306Z,0.00
2019-03-19T00:31:04.320Z,0.00
2019-03-19T00:32:11.373Z,0.00
2019-03-19T00:33:03.578Z,0.00
2019-03-19T00:34:04.801Z,0.00
2019-03-19T00:35:19.867Z,0.00
2019-03-19T00:36:25.217Z,0.00
2019-03-19T00:37:19.857Z,0.00
2019-03-19T00:38:06.805Z,0.00
2019-03-19T00:39:09.322Z,0.00
2019-03-19T00:40:05.663Z,0.00
2019-03-19T00:41:06.815Z,0.00
2019-03-19T00:42:06.810Z,0.00
2019-03-19T00:43:07.293Z,0.00
2019-03-19T00:44:06.878Z,0.00
2019-03-19T00:45:08.348Z,0.00
2019-03-19T00:46:07.731Z,0.00
2019-03-19T00:47:07.819Z,0.00
2019-03-19T00:48:12.856Z,0.00
2019-03-19T00:49:07.907Z,0.00
2019-03-19T00:50:09.858Z,0.00
2019-03-19T00:51:08.381Z,0.00
2019-03-19T00:52:08.365Z,0.00
2019-03-19T00:53:08.858Z,0.00
2019-03-19T00:54:08.894Z,0.00
2019-03-19T00:55:10.860Z,0.00
2019-03-19T00:56:10.870Z,0.00
2019-03-19T00:57:09.350Z,0.00
2019-03-19T00:58:10.318Z,0.00
2019-03-19T00:59:11.375Z,0.00
2019-03-19T01:00:08.973Z,0.00
2019-03-19T01:01:29.188Z,0.00
2019-03-19T01:02:08.382Z,0.00
2019-03-19T01:03:09.333Z,0.00
2019-03-19T01:04:09.810Z,0.00
2019-03-19T01:05:29.937Z,0.00
2019-03-19T01:06:12.305Z,0.00
2019-03-19T01:07:10.270Z,0.00
2019-03-19T01:08:09.474Z,0.00
2019-03-19T01:09:34.357Z,0.00
2019-03-19T01:10:13.363Z,0.00
2019-03-19T01:11:11.818Z,0.00
2019-03-19T01:12:11.908Z,0.00
2019-03-19T01:13:12.352Z,0.00
2019-03-19T01:14:10.548Z,0.00
2019-03-19T01:15:12.386Z,0.00
2019-03-19T01:16:15.307Z,0.00
2019-03-19T01:17:13.856Z,0.00
2019-03-19T01:18:11.259Z,0.00
2019-03-19T01:19:13.393Z,0.00
2019-03-19T01:20:11.614Z,0.00
2019-03-19T01:21:15.697Z,0.00
2019-03-19T01:22:11.917Z,0.00
2019-03-19T01:23:14.815Z,0.00
2019-03-19T01:24:14.821Z,0.00
2019-03-19T01:25:12.400Z,0.00
2019-03-19T01:26:14.355Z,0.00
2019-03-19T01:27:16.363Z,0.00
2019-03-19T01:28:13.934Z,0.00
2019-03-19T01:29:18.348Z,0.00
2019-03-19T01:30:15.899Z,0.00
2019-03-19T01:31:29.368Z,0.00
2019-03-19T01:32:15.568Z,0.00
2019-03-19T01:33:13.905Z,0.00
2019-03-19T01:34:15.852Z,0.00
2019-03-19T01:35:15.873Z,0.00
2019-03-19T01:36:15.366Z,0.00
2019-03-19T01:37:18.360Z,0.00
2019-03-19T01:38:16.402Z,0.00
2019-03-19T01:39:22.356Z,0.00
2019-03-19T01:40:14.912Z,0.00
2019-03-19T01:41:15.151Z,0.00
2019-03-19T01:42:22.900Z,0.00
2019-03-19T01:43:18.326Z,0.00
2019-03-19T01:44:17.350Z,0.00
2019-03-19T01:45:19.352Z,0.00
2019-03-19T01:46:22.902Z,0.00
2019-03-19T01:47:16.813Z,0.00
2019-03-19T01:48:32.356Z,0.00
2019-03-19T01:49:17.335Z,0.00
2019-03-19T01:50:39.351Z,0.00
2019-03-19T01:51:42.825Z,0.00
2019-03-19T01:52:19.806Z,0.00
2019-03-19T01:53:18.853Z,0.00
2019-03-19T01:54:17.280Z,0.00
2019-03-19T01:55:19.417Z,0.00
2019-03-19T01:56:19.383Z,0.00
2019-03-19T01:57:18.863Z,0.00
2019-03-19T01:58:18.831Z,0.00
2019-03-19T01:59:18.166Z,0.00
2019-03-19T02:00:20.349Z,0.00
2019-03-19T02:01:19.560Z,0.00
2019-03-19T02:02:20.345Z,0.00
2019-03-19T02:03:20.875Z,0.00
2019-03-19T02:04:19.046Z,0.00
2019-03-19T02:05:26.862Z,0.00
2019-03-19T02:06:21.638Z,0.00
2019-03-19T02:07:21.849Z,0.00
2019-03-19T02:08:26.363Z,0.00
2019-03-19T02:09:21.855Z,0.00
2019-03-19T02:10:21.888Z,0.00
2019-03-19T02:11:27.854Z,0.00
2019-03-19T02:12:22.349Z,0.00
2019-03-19T02:13:22.355Z,0.00
2019-03-19T02:14:22.353Z,0.00
2019-03-19T02:15:22.799Z,0.00
2019-03-19T02:16:36.854Z,0.00
2019-03-19T02:17:21.177Z,0.00
2019-03-19T02:18:29.195Z,0.00
2019-03-19T02:19:24.805Z,0.00
2019-03-19T02:20:23.373Z,0.00
2019-03-19T02:21:23.359Z,0.00
2019-03-19T02:22:35.334Z,0.00
2019-03-19T02:23:22.811Z,0.00
2019-03-19T02:24:37.852Z,0.00
2019-03-19T02:25:45.704Z,0.00
2019-03-19T02:26:27.310Z,0.00
2019-03-19T02:27:26.358Z,0.00
2019-03-19T02:28:22.799Z,0.00
2019-03-19T02:29:26.308Z,0.00
2019-03-19T02:30:23.870Z,0.00
2019-03-19T02:31:26.899Z,0.00
2019-03-19T02:32:25.355Z,0.00
2019-03-19T02:33:25.426Z,0.00
2019-03-19T02:34:23.894Z,0.00
2019-03-19T02:35:26.807Z,0.00
2019-03-19T02:36:24.316Z,0.00
2019-03-19T02:37:27.862Z,0.00
2019-03-19T02:38:27.337Z,0.00
2019-03-19T02:39:24.919Z,0.00
2019-03-19T02:40:25.191Z,0.00
2019-03-19T02:41:26.879Z,0.00
2019-03-19T02:42:29.376Z,0.00
2019-03-19T02:43:25.889Z,0.00
2019-03-19T02:44:27.428Z,0.00
2019-03-19T02:45:27.860Z,0.00
2019-03-19T02:46:35.307Z,0.00
2019-03-19T02:47:28.353Z,0.00
2019-03-19T02:48:28.350Z,0.00
2019-03-19T02:49:28.351Z,0.00
2019-03-19T02:50:26.845Z,0.00
2019-03-19T02:51:28.854Z,0.00
2019-03-19T02:52:28.853Z,0.00
2019-03-19T02:53:29.694Z,0.00
2019-03-19T02:54:27.429Z,0.00
2019-03-19T02:55:35.304Z,0.00
2019-03-19T02:56:32.969Z,0.00
2019-03-19T02:59:01.621Z,0.00
2019-03-19T03:00:01.062Z,0.00
2019-03-19T03:01:00.296Z,0.00
2019-03-19T03:02:16.132Z,0.00
2019-03-19T03:03:02.144Z,0.00
2019-03-19T03:04:02.645Z,0.00
2019-03-19T03:05:16.645Z,0.00
2019-03-19T03:06:01.589Z,0.00
2019-03-19T03:07:01.195Z,0.00
2019-03-19T03:08:03.108Z,0.00
2019-03-19T03:09:01.511Z,0.00
2019-03-19T03:10:05.606Z,0.00
2019-03-19T03:11:04.011Z,0.00
2019-03-19T03:12:03.654Z,0.00
2019-03-19T03:13:02.657Z,0.00
2019-03-19T03:14:06.073Z,0.00
2019-03-19T03:15:02.407Z,0.00
2019-03-19T03:16:05.562Z,0.00
2019-03-19T03:17:02.812Z,0.00
2019-03-19T03:18:24.079Z,0.00
2019-03-19T03:19:04.617Z,0.00
2019-03-19T03:20:03.196Z,0.00
2019-03-19T03:21:05.119Z,0.00
2019-03-19T03:22:04.853Z,0.00
2019-03-19T03:23:05.621Z,0.00
2019-03-19T03:24:04.594Z,0.00
2019-03-19T03:25:04.082Z,0.00
2019-03-19T03:26:27.063Z,0.00
2019-03-19T03:27:04.699Z,0.00
2019-03-19T03:28:05.081Z,0.00
2019-03-19T03:29:06.608Z,0.00
2019-03-19T03:30:05.845Z,0.00
2019-03-19T03:31:11.614Z,0.00
2019-03-19T03:32:06.100Z,0.00
2019-03-19T03:33:12.159Z,0.00
2019-03-19T03:34:08.072Z,0.00
2019-03-19T03:35:12.626Z,0.00
2019-03-19T03:36:05.786Z,0.00
2019-03-19T03:37:07.629Z,0.00
2019-03-19T03:38:07.606Z,0.00
2019-03-19T03:39:10.523Z,0.00
2019-03-19T03:40:09.985Z,0.00
2019-03-19T03:41:07.872Z,0.00
2019-03-19T03:42:08.631Z,0.00
2019-03-19T03:43:10.607Z,0.00
2019-03-19T03:44:09.054Z,0.00
2019-03-19T03:45:07.515Z,0.00
2019-03-19T03:46:11.618Z,0.00
2019-03-19T03:47:07.816Z,0.00
2019-03-19T03:48:09.648Z,0.00
2019-03-19T03:49:08.243Z,0.00
2019-03-19T03:50:11.560Z,0.00
2019-03-19T03:51:32.564Z,0.00
2019-03-19T03:52:31.662Z,0.00
2019-03-19T03:53:10.801Z,0.00
2019-03-19T03:54:11.147Z,0.00
2019-03-19T03:55:10.069Z,0.00
2019-03-19T03:56:11.153Z,0.00
2019-03-19T03:57:11.578Z,0.00
2019-03-19T03:58:17.605Z,0.00
2019-03-19T03:59:16.610Z,0.00
2019-03-19T04:00:32.606Z,0.00
2019-03-19T04:01:12.128Z,0.00
2019-03-19T04:02:12.108Z,0.00
2019-03-19T04:03:12.107Z,0.00
2019-03-19T04:04:12.077Z,0.00
2019-03-19T04:05:12.569Z,0.00
2019-03-19T04:06:12.621Z,0.00
2019-03-19T04:07:20.083Z,0.00
2019-03-19T04:08:48.157Z,0.00
2019-03-19T04:09:17.112Z,0.00
2019-03-19T04:11:49.070Z,0.00
2019-03-19T04:12:48.045Z,0.00
2019-03-19T04:13:43.673Z,0.00
2019-03-19T04:14:46.976Z,0.00
2019-03-19T04:15:52.842Z,0.00
2019-03-19T04:16:48.114Z,0.00
2019-03-19T04:17:46.079Z,0.00
2019-03-19T04:18:45.071Z,0.00
2019-03-19T04:19:45.538Z,0.00
2019-03-19T04:20:46.834Z,0.00
2019-03-19T04:21:46.003Z,0.00
2019-03-19T04:22:45.080Z,0.00
2019-03-19T04:23:46.283Z,0.00
2019-03-19T04:24:49.080Z,0.00
2019-03-19T04:25:49.579Z,0.00
2019-03-19T04:26:46.864Z,0.00
2019-03-19T04:27:46.947Z,0.00
2019-03-19T04:28:49.896Z,0.00
2019-03-19T04:29:48.077Z,0.00
2019-03-19T04:30:46.395Z,0.00
2019-03-19T04:31:50.576Z,0.00
2019-03-19T04:32:47.535Z,0.00
2019-03-19T04:33:48.246Z,0.00
2019-03-19T04:34:48.136Z,0.00
2019-03-19T04:35:49.107Z,0.00
2019-03-19T04:36:50.067Z,0.00
2019-03-19T04:37:49.081Z,0.00
2019-03-19T04:38:50.538Z,0.00
2019-03-19T04:39:47.985Z,0.00
2019-03-19T04:40:49.819Z,0.00
2019-03-19T04:41:56.083Z,0.00
2019-03-19T04:42:50.034Z,0.00
2019-03-19T04:43:48.626Z,0.00
2019-03-19T04:44:50.613Z,0.00
2019-03-19T04:45:49.147Z,0.00
2019-03-19T04:47:05.081Z,0.00
2019-03-19T04:47:51.260Z,0.00
2019-03-19T04:48:54.038Z,0.00
2019-03-19T04:49:51.634Z,0.00
2019-03-19T04:51:12.584Z,0.00
2019-03-19T04:51:52.533Z,0.00
2019-03-19T04:52:54.623Z,0.00
2019-03-19T04:53:54.077Z,0.00
2019-03-19T04:54:58.090Z,0.00
2019-03-19T04:55:54.081Z,0.00
2019-03-19T04:57:06.580Z,0.00
2019-03-19T04:57:55.539Z,0.00
2019-03-19T04:58:58.079Z,0.00
2019-03-19T05:00:07.164Z,0.00
2019-03-19T05:00:53.533Z,0.00
2019-03-19T05:01:55.578Z,0.00
2019-03-19T05:02:52.080Z,0.00
2019-03-19T05:04:07.584Z,0.00
2019-03-19T05:04:53.784Z,0.00
2019-03-19T05:05:53.251Z,0.00
2019-03-19T05:06:55.037Z,0.00
2019-03-19T05:07:52.501Z,0.00
2019-03-19T05:09:00.597Z,0.00
2019-03-19T05:09:52.923Z,0.00
2019-03-19T05:10:53.134Z,0.00
2019-03-19T05:11:53.343Z,0.00
2019-03-19T05:12:54.541Z,0.00
2019-03-19T05:13:55.610Z,0.00
2019-03-19T05:14:53.948Z,5.63
2019-03-19T05:15:56.087Z,5.63
2019-03-19T05:16:55.299Z,5.63
2019-03-19T05:17:56.087Z,5.63
2019-03-19T05:18:59.203Z,5.63
2019-03-19T05:19:57.572Z,5.63
2019-03-19T05:20:56.581Z,11.25
2019-03-19T05:22:11.545Z,11.25
2019-03-19T05:22:58.047Z,11.25
2019-03-19T05:23:58.067Z,11.25
2019-03-19T05:24:57.197Z,16.88
2019-03-19T05:25:59.596Z,16.88
2019-03-19T05:26:59.578Z,16.88
2019-03-19T05:27:59.035Z,22.50
2019-03-19T05:28:56.124Z,22.50
2019-03-19T05:30:19.091Z,28.13
2019-03-19T05:31:01.035Z,28.13
2019-03-19T05:32:02.603Z,33.75
2019-03-19T05:32:58.576Z,33.75
2019-03-19T05:33:58.037Z,39.38
2019-03-19T05:35:00.170Z,39.38
2019-03-19T05:36:00.037Z,45.00
2019-03-19T05:37:00.036Z,45.00
2019-03-19T05:37:57.631Z,50.63
2019-03-19T05:39:01.576Z,56.25
2019-03-19T05:39:58.021Z,56.25
2019-03-19T05:41:00.080Z,61.88
2019-03-19T05:42:00.386Z,67.50
2019-03-19T05:43:03.468Z,73.13
2019-03-19T05:44:00.573Z,78.75
2019-03-19T05:44:59.918Z,84.38
2019-03-19T05:46:00.591Z,90.00
2019-03-19T05:47:15.081Z,95.63
2019-03-19T05:48:01.086Z,101.25
2019-03-19T05:49:01.867Z,106.88
2019-03-19T05:50:00.652Z,112.50
2019-03-19T05:51:32.690Z,112.50
2019-03-19T05:52:05.044Z,118.13
2019-03-19T05:52:59.982Z,123.75
2019-03-19T05:54:00.129Z,123.75
2019-03-19T05:55:04.083Z,123.75
2019-03-19T05:56:01.532Z,129.38
2019-03-19T05:57:02.586Z,140.63
2019-03-19T05:58:04.571Z,146.25
2019-03-19T05:59:02.574Z,157.50
2019-03-19T06:00:02.588Z,163.13
2019-03-19T06:01:03.091Z,168.75
2019-03-19T06:02:04.089Z,174.38
2019-03-19T06:03:02.209Z,180.00
2019-03-19T06:04:01.541Z,191.25
2019-03-19T06:05:06.682Z,191.25
2019-03-19T06:06:04.074Z,191.25
2019-03-19T06:07:04.180Z,196.88
2019-03-19T06:08:06.071Z,196.88
2019-03-19T06:09:06.814Z,202.50
2019-03-19T06:10:04.088Z,208.13
2019-03-19T06:11:05.522Z,213.75
2019-03-19T06:12:07.250Z,213.75
2019-03-19T06:13:03.181Z,219.38
2019-03-19T06:14:04.048Z,225.00
2019-03-19T06:15:04.511Z,230.63
2019-03-19T06:16:11.606Z,236.25
2019-03-19T06:17:04.519Z,247.50
2019-03-19T06:18:06.474Z,253.13
2019-03-19T06:19:06.075Z,258.75
2019-03-19T06:20:06.088Z,264.38
2019-03-19T06:21:06.073Z,270.00
2019-03-19T06:22:08.604Z,275.63
2019-03-19T06:23:06.581Z,281.25
2019-03-19T06:24:09.544Z,286.88
2019-03-19T06:25:08.046Z,292.50
2019-03-19T06:26:05.378Z,298.13
2019-03-19T06:27:08.273Z,298.13
2019-03-19T06:28:07.592Z,303.75
2019-03-19T06:29:07.578Z,315.00
2019-03-19T06:30:09.578Z,315.00
2019-03-19T06:31:06.166Z,320.63
2019-03-19T06:32:10.078Z,326.25
2019-03-19T06:33:10.074Z,331.88
2019-03-19T06:34:08.583Z,337.50
2019-03-19T06:35:07.768Z,337.50
2019-03-19T06:36:08.620Z,343.13
2019-03-19T06:37:09.073Z,354.38
2019-03-19T06:38:11.631Z,421.88
2019-03-19T06:39:07.548Z,714.38
2019-03-19T06:40:11.573Z,1040.63
2019-03-19T06:41:09.574Z,1355.63
2019-03-19T06:42:09.573Z,1620.00
2019-03-19T06:43:25.044Z,1749.38
2019-03-19T06:44:09.255Z,1794.38
2019-03-19T06:45:10.103Z,1816.88
2019-03-19T06:46:12.570Z,1856.25
2019-03-19T06:47:08.897Z,1873.13
2019-03-19T06:48:11.102Z,1918.13
2019-03-19T06:49:11.086Z,1951.88
2019-03-19T06:50:09.413Z,1974.38
2019-03-19T06:51:11.572Z,2013.75
2019-03-19T06:52:19.034Z,2053.13
2019-03-19T06:53:11.157Z,2075.63
2019-03-19T06:54:16.222Z,2103.75
2019-03-19T06:55:12.099Z,2131.88
2019-03-19T06:56:14.934Z,2182.50
2019-03-19T06:57:10.767Z,2227.50
2019-03-19T06:58:11.484Z,2272.50
2019-03-19T06:59:13.076Z,2306.25
2019-03-19T07:00:13.087Z,2340.00
2019-03-19T07:01:11.433Z,2373.75
2019-03-19T07:02:11.644Z,2413.13
2019-03-19T07:03:11.866Z,2441.25
2019-03-19T07:04:13.619Z,2486.25
2019-03-19T07:05:14.078Z,2520.00
2019-03-19T07:06:16.070Z,2542.50
2019-03-19T07:07:13.720Z,2576.25
2019-03-19T07:08:12.694Z,2604.38
2019-03-19T07:09:12.896Z,2615.63
2019-03-19T07:10:15.075Z,2660.63
2019-03-19T07:11:13.301Z,2694.38
2019-03-19T07:12:13.401Z,2733.75
2019-03-19T07:13:13.611Z,2761.88
2019-03-19T07:14:13.826Z,2795.63
2019-03-19T07:15:14.064Z,2823.75
2019-03-19T07:16:14.249Z,2835.00
2019-03-19T07:17:14.463Z,2857.50
2019-03-19T07:18:18.582Z,2880.00
2019-03-19T07:19:16.575Z,2919.38
2019-03-19T07:20:18.626Z,2936.25
2019-03-19T07:21:15.098Z,2975.63
2019-03-19T07:22:15.346Z,3015.00
2019-03-19T07:23:17.086Z,3043.13
2019-03-19T07:24:15.573Z,3071.25
2019-03-19T07:25:15.677Z,3110.63
2019-03-19T07:26:18.713Z,3127.50
2019-03-19T07:27:19.071Z,3144.38
2019-03-19T07:33:17.289Z,3268.13
2019-03-19T07:34:02.428Z,3307.50
2019-03-19T07:35:00.987Z,3318.75
2019-03-19T07:36:00.407Z,3313.13
2019-03-19T07:37:02.923Z,3313.13
2019-03-19T07:38:11.694Z,3346.88
2019-03-19T07:39:06.462Z,3363.75
2019-03-19T07:40:01.462Z,3408.75
2019-03-19T07:41:04.226Z,3425.63
2019-03-19T07:42:03.775Z,3448.13
2019-03-19T07:44:47.552Z,3510.00
2019-03-19T07:45:39.427Z,3543.75
2019-03-19T07:46:36.943Z,3588.75
2019-03-19T07:47:36.580Z,3611.25
2019-03-19T07:48:38.058Z,3656.25
2019-03-19T07:49:55.055Z,3673.13
2019-03-19T07:50:34.970Z,3690.00
2019-03-19T07:54:08.110Z,3791.25
2019-03-19T07:55:06.572Z,3819.38
2019-03-19T07:56:28.033Z,3819.38
2019-03-19T07:58:08.774Z,3881.25
2019-03-19T07:59:19.147Z,3858.75
2019-03-19T08:00:09.097Z,3870.00
2019-03-19T08:01:08.413Z,3858.75
2019-03-19T08:02:10.608Z,3870.00
2019-03-19T08:03:15.954Z,3892.50
2019-03-19T08:04:09.349Z,3903.75
2019-03-19T08:05:09.765Z,3920.63
2019-03-19T08:06:11.626Z,3982.50
2019-03-19T08:07:29.036Z,3988.13
2019-03-19T08:08:08.161Z,4033.13
2019-03-19T08:09:09.077Z,4123.13
2019-03-19T08:10:10.153Z,4083.75
2019-03-19T08:11:13.016Z,4179.38
2019-03-19T08:12:10.657Z,4258.13
2019-03-19T08:13:10.653Z,4258.13
2019-03-19T08:14:09.828Z,3498.75
2019-03-19T08:15:11.057Z,4286.25
2019-03-19T08:16:13.105Z,4410.00
2019-03-19T08:17:11.611Z,3768.75
2019-03-19T08:18:25.606Z,4269.38
2019-03-19T08:19:13.605Z,4567.50
2019-03-19T08:20:10.199Z,4145.63
2019-03-19T08:21:12.135Z,4061.25
2019-03-19T08:22:12.112Z,4466.25
2019-03-19T08:23:10.827Z,4353.75
2019-03-19T08:24:12.289Z,4387.50
2019-03-19T08:25:15.320Z,3285.00
2019-03-19T08:26:11.530Z,4561.88
2019-03-19T08:27:11.696Z,4606.88
2019-03-19T08:28:12.988Z,4702.50
2019-03-19T08:29:12.328Z,4280.63
2019-03-19T08:30:17.132Z,2176.88
2019-03-19T08:31:12.409Z,1406.25
2019-03-19T08:32:15.128Z,4758.75
2019-03-19T08:33:14.642Z,4803.75
2019-03-19T08:34:16.831Z,4854.38
2019-03-19T08:35:15.184Z,4893.75
2019-03-19T08:36:13.493Z,4876.88
2019-03-19T08:37:15.521Z,4843.13
2019-03-19T08:38:13.745Z,4916.25
2019-03-19T08:39:17.680Z,4983.75
2019-03-19T08:40:30.120Z,4972.50
2019-03-19T08:41:16.171Z,5124.38
2019-03-19T08:42:14.730Z,1215.00
2019-03-19T08:43:15.799Z,1108.13
2019-03-19T08:44:27.302Z,4865.63
2019-03-19T08:45:16.637Z,5079.38
2019-03-19T08:46:17.115Z,1895.63
2019-03-19T08:47:17.119Z,3948.75
2019-03-19T08:48:15.719Z,5349.38
2019-03-19T08:49:17.850Z,3706.88
2019-03-19T08:50:24.519Z,5304.38
2019-03-19T08:51:18.111Z,4297.50
2019-03-19T08:52:23.119Z,2165.63
2019-03-19T08:53:38.727Z,2739.38
2019-03-19T08:54:20.637Z,838.13
2019-03-19T08:55:19.107Z,793.13
2019-03-19T08:56:21.112Z,1119.38
2019-03-19T08:57:21.113Z,781.88
2019-03-19T08:58:21.064Z,815.63
2019-03-19T08:59:17.914Z,838.13
2019-03-19T09:00:23.148Z,4848.75
2019-03-19T09:01:20.063Z,4854.38
2019-03-19T09:02:18.564Z,4876.88
2019-03-19T09:03:20.626Z,4966.88
2019-03-19T09:04:23.337Z,5045.63
2019-03-19T09:05:26.620Z,5090.63
2019-03-19T09:06:20.611Z,5220.00
2019-03-19T09:07:23.160Z,2806.88
2019-03-19T09:08:27.113Z,3453.75
2019-03-19T09:09:21.642Z,3043.13
2019-03-19T09:10:24.044Z,5495.63
2019-03-19T09:11:21.671Z,4325.63
2019-03-19T09:12:23.133Z,5585.63
2019-03-19T09:13:20.426Z,1383.75
2019-03-19T09:14:20.652Z,1170.00
2019-03-19T09:15:20.752Z,1035.00
2019-03-19T09:16:20.982Z,1001.25
2019-03-19T09:17:23.119Z,990.00
2019-03-19T09:18:22.761Z,1018.13
2019-03-19T09:19:23.122Z,916.88
2019-03-19T09:20:22.713Z,871.88
2019-03-19T09:21:26.675Z,843.75
2019-03-19T09:22:30.127Z,838.13
2019-03-19T09:23:26.128Z,871.88
2019-03-19T09:24:26.138Z,1788.75
2019-03-19T09:25:25.665Z,5501.25
2019-03-19T09:26:24.836Z,5563.13
2019-03-19T09:27:45.773Z,5602.50
2019-03-19T09:28:25.270Z,5653.13
2019-03-19T09:29:25.388Z,5692.50
2019-03-19T09:30:27.359Z,5670.00
2019-03-19T09:31:24.790Z,5647.50
2019-03-19T09:32:25.709Z,5664.38
2019-03-19T09:33:28.115Z,5703.75
2019-03-19T09:34:24.344Z,5760.00
2019-03-19T09:35:28.116Z,5776.88
2019-03-19T09:36:27.082Z,5248.13
2019-03-19T09:37:57.849Z,4905.00
2019-03-19T09:38:28.649Z,1338.75
2019-03-19T09:39:27.307Z,1102.50
2019-03-19T09:40:25.434Z,1057.50
2019-03-19T09:41:31.704Z,1085.63
2019-03-19T09:42:29.659Z,1164.38
2019-03-19T09:43:26.043Z,1490.63
2019-03-19T09:44:28.119Z,5073.75
2019-03-19T09:45:27.470Z,5934.38
2019-03-19T09:46:31.147Z,5585.63
2019-03-19T09:47:28.633Z,1839.38
2019-03-19T09:48:35.616Z,1333.13
2019-03-19T09:49:28.575Z,1271.25
2019-03-19T09:50:27.488Z,1102.50
2019-03-19T09:51:29.120Z,1040.63
2019-03-19T09:52:29.623Z,1029.38
2019-03-19T09:53:29.617Z,1040.63
2019-03-19T09:54:29.072Z,1895.63
2019-03-19T09:57:01.951Z,5703.75
2019-03-19T09:58:04.048Z,5737.50
2019-03-19T09:59:03.946Z,5805.00
2019-03-19T10:00:02.448Z,5906.25
2019-03-19T10:01:04.396Z,5911.88
2019-03-19T10:02:01.786Z,5951.25
2019-03-19T10:03:04.421Z,6035.63
2019-03-19T10:04:04.008Z,6091.88
2019-03-19T10:05:01.515Z,6142.50
2019-03-19T10:06:13.643Z,6283.13
2019-03-19T10:07:06.188Z,3088.13
2019-03-19T10:08:03.453Z,1513.13
2019-03-19T10:09:02.225Z,1490.63
2019-03-19T10:10:03.492Z,4038.75
2019-03-19T10:11:05.423Z,1108.13
2019-03-19T10:12:02.810Z,984.38
2019-03-19T10:13:07.017Z,928.13
2019-03-19T10:14:03.269Z,922.50
2019-03-19T10:15:27.949Z,961.88
2019-03-19T10:16:04.540Z,1051.88
2019-03-19T10:17:03.713Z,1153.13
2019-03-19T10:18:05.442Z,1327.50
2019-03-19T10:19:04.206Z,2531.25
2019-03-19T10:20:06.955Z,1575.00
2019-03-19T10:21:07.951Z,1552.50
2019-03-19T10:22:04.675Z,2289.38
2019-03-19T10:23:05.982Z,4595.63
2019-03-19T10:24:06.955Z,1535.63
2019-03-19T10:25:20.954Z,1411.88
2019-03-19T10:26:08.411Z,1108.13
2019-03-19T10:27:13.621Z,1018.13
2019-03-19T10:28:09.505Z,945.00
2019-03-19T10:29:11.984Z,888.75
2019-03-19T10:30:06.203Z,866.25
2019-03-19T10:31:07.517Z,843.75
2019-03-19T10:32:13.506Z,838.13
2019-03-19T10:33:11.418Z,838.13
2019-03-19T10:34:08.952Z,821.25
2019-03-19T10:35:07.223Z,815.63
2019-03-19T10:36:14.965Z,815.63
2019-03-19T10:37:07.573Z,832.50
2019-03-19T10:38:07.799Z,843.75
2019-03-19T10:39:09.023Z,860.63
2019-03-19T10:40:08.125Z,900.00
2019-03-19T10:41:09.954Z,956.25
2019-03-19T10:42:08.583Z,1046.25
2019-03-19T10:43:08.774Z,2362.50
2019-03-19T10:44:08.987Z,1186.88
2019-03-19T10:45:10.973Z,1254.38
2019-03-19T10:46:09.443Z,5731.88
2019-03-19T10:47:11.454Z,5793.75
2019-03-19T10:48:09.801Z,5748.75
2019-03-19T10:49:10.019Z,5760.00
2019-03-19T10:50:12.105Z,5776.88
2019-03-19T10:51:12.236Z,5861.25
2019-03-19T10:52:26.451Z,5973.75
2019-03-19T10:53:13.069Z,6007.50
2019-03-19T10:54:10.987Z,6007.50
2019-03-19T10:55:18.953Z,6013.13
2019-03-19T10:56:16.450Z,6114.38
2019-03-19T10:57:12.963Z,4263.75
2019-03-19T10:58:13.527Z,3307.50
2019-03-19T10:59:13.418Z,6131.25
2019-03-19T11:00:15.460Z,2475.00
2019-03-19T11:01:12.049Z,5512.50
2019-03-19T11:02:13.539Z,6300.00
2019-03-19T11:03:15.425Z,6322.50
2019-03-19T11:04:15.436Z,6300.00
2019-03-19T11:05:14.688Z,6069.38
2019-03-19T11:06:15.979Z,4230.00
2019-03-19T11:07:15.287Z,1676.25
2019-03-19T11:08:13.391Z,3504.38
2019-03-19T11:09:14.457Z,5563.13
2019-03-19T11:10:13.831Z,5782.50
2019-03-19T11:11:14.045Z,5951.25
2019-03-19T11:12:16.005Z,5883.75
2019-03-19T11:13:17.010Z,5805.00
2019-03-19T11:14:18.430Z,5748.75
2019-03-19T11:15:16.457Z,5726.25
2019-03-19T11:16:16.489Z,5720.63
2019-03-19T11:17:15.127Z,5636.25
2019-03-19T11:18:16.965Z,5613.75
2019-03-19T11:19:18.968Z,5675.63
2019-03-19T11:20:16.717Z,5805.00
2019-03-19T11:21:17.467Z,5653.13
2019-03-19T11:22:18.909Z,5641.88
2019-03-19T11:23:18.500Z,5653.13
2019-03-19T11:24:24.750Z,5670.00
2019-03-19T11:25:17.897Z,5619.38
2019-03-19T11:26:20.959Z,5563.13
2019-03-19T11:27:18.966Z,5563.13
2019-03-19T11:28:22.975Z,5574.38
2019-03-19T11:29:21.461Z,5563.13
2019-03-19T11:30:19.498Z,5580.00
2019-03-19T11:31:21.911Z,5557.50
2019-03-19T11:32:18.194Z,5619.38
2019-03-19T11:33:22.068Z,5602.50
2019-03-19T11:34:22.458Z,5568.75
2019-03-19T11:35:23.465Z,5490.00
2019-03-19T11:36:20.416Z,5490.00
2019-03-19T11:37:20.966Z,5518.13
2019-03-19T11:38:19.402Z,5557.50
2019-03-19T11:39:24.420Z,5473.13
2019-03-19T11:40:20.355Z,5281.88
2019-03-19T11:41:21.054Z,3780.00
2019-03-19T11:42:22.911Z,2289.38
2019-03-19T11:43:43.956Z,2745.00
2019-03-19T11:44:23.055Z,2131.88
2019-03-19T11:45:23.467Z,1530.00
2019-03-19T11:46:21.974Z,6007.50
2019-03-19T11:47:25.000Z,5698.13
2019-03-19T11:48:22.282Z,5855.63
2019-03-19T11:49:22.455Z,4764.38
2019-03-19T11:50:22.475Z,4983.75
2019-03-19T11:51:42.861Z,5720.63
2019-03-19T11:52:24.123Z,3954.38
2019-03-19T11:53:44.923Z,5546.25
2019-03-19T11:54:25.927Z,5585.63
2019-03-19T11:55:25.934Z,5664.38
2019-03-19T11:56:24.910Z,5085.00
2019-03-19T11:57:45.986Z,1873.13
2019-03-19T11:58:25.999Z,4320.00
2019-03-19T12:03:15.434Z,1248.75
2019-03-19T12:03:42.653Z,1141.88
2019-03-19T12:04:44.833Z,1130.63
2019-03-19T12:05:51.819Z,1186.88
2019-03-19T12:07:11.919Z,1597.50
2019-03-19T12:07:46.239Z,1271.25
2019-03-19T12:10:29.506Z,1130.63
2019-03-19T12:11:25.050Z,1108.13
2019-03-19T12:31:06.844Z,821.25
2019-03-19T12:31:59.347Z,810.00
2019-03-19T12:32:57.776Z,815.63
2019-03-19T12:33:57.759Z,776.25
2019-03-19T12:35:02.368Z,753.75
2019-03-19T12:36:03.311Z,731.25
2019-03-19T12:37:00.322Z,708.75
2019-03-19T12:37:58.309Z,691.88
2019-03-19T12:39:00.830Z,714.38
2019-03-19T12:40:01.763Z,691.88
2019-03-19T12:40:59.355Z,680.63
2019-03-19T12:42:22.322Z,680.63
2019-03-19T12:43:00.314Z,691.88
2019-03-19T12:44:05.797Z,680.63
2019-03-19T12:45:05.818Z,669.38
2019-03-19T12:46:00.248Z,680.63
2019-03-19T12:46:59.785Z,714.38
2019-03-19T12:48:01.599Z,765.00
2019-03-19T12:49:01.261Z,855.00
2019-03-19T12:50:00.831Z,4449.38
2019-03-19T12:50:59.759Z,2064.38
2019-03-19T12:52:00.369Z,4663.13
2019-03-19T12:53:00.595Z,4618.13
2019-03-19T12:54:07.362Z,1305.00
2019-03-19T12:56:46.290Z,1091.25
2019-03-19T12:57:36.697Z,1175.63
2019-03-19T12:58:34.202Z,1440.00
2019-03-19T12:59:35.128Z,4505.63
2019-03-19T13:00:37.151Z,4494.38
2019-03-19T13:01:34.931Z,4398.75
2019-03-19T13:02:34.668Z,1276.88
2019-03-19T13:03:40.277Z,1231.88
2019-03-19T13:04:35.189Z,4370.63
2019-03-19T13:05:36.192Z,4426.88
2019-03-19T13:06:49.691Z,4196.25
2019-03-19T13:07:35.769Z,2430.00
2019-03-19T13:08:51.633Z,1726.88
2019-03-19T13:09:36.180Z,4207.50
2019-03-19T13:10:36.226Z,4151.25
2019-03-19T13:11:36.231Z,4134.38
2019-03-19T13:12:36.763Z,4190.63
2019-03-19T13:13:35.092Z,3690.00
2019-03-19T13:14:37.892Z,2790.00
2019-03-19T13:15:42.173Z,1338.75
2019-03-19T13:16:36.882Z,1468.13
2019-03-19T13:17:49.124Z,1968.75
2019-03-19T13:18:39.698Z,1411.88
2019-03-19T13:19:38.633Z,1248.75
2019-03-19T13:20:44.228Z,3217.50
2019-03-19T13:22:00.125Z,1428.75